Time;durP1;ratioP1;P1;durP2;ratioP2;P2;SDS_P1;SDS_P2;PMS_P1;PMS_P2;Temp;Humidity;BMP_temperature;BMP_pressure;BME280_temperature;BME280_humidity;BME280_pressure;Samples;Min_cycle;Max_cycle;Signal;HPM_P1;HPM_P2
2024/04/07 00:01:38;;;;;;;0.00;0.00;;;19.20;51.50;;;;;;5046992;28;20233;-49
2024/04/07 00:04:11;;;;;;;0.10;0.10;;;19.20;51.60;;;;;;5048536;28;20231;-47
2024/04/07 00:06:40;;;;;;;0.00;0.00;;;19.20;51.60;;;;;;5047712;28;20257;-48
2024/04/07 00:09:11;;;;;;;0.03;0.03;;;19.30;51.70;;;;;;5046954;28;20211;-47
2024/04/07 00:11:40;;;;;;;0.00;0.00;;;19.30;51.60;;;;;;5048080;28;20200;-49
2024/04/07 00:14:11;;;;;;;0.00;0.00;;;19.40;51.70;;;;;;5047098;28;20203;-48
2024/04/07 00:16:40;;;;;;;0.10;0.10;;;19.40;51.70;;;;;;5048579;28;20256;-47
2024/04/07 00:19:12;;;;;;;0.00;0.00;;;19.40;52.30;;;;;;5047107;28;20462;-50
2024/04/07 00:21:41;;;;;;;0.10;0.10;;;19.50;51.60;;;;;;5047626;28;20195;-47
2024/04/07 00:24:13;;;;;;;0.00;0.00;;;19.50;51.60;;;;;;5047151;28;20614;-46
2024/04/07 00:26:42;;;;;;;0.10;0.10;;;19.60;51.70;;;;;;5046802;28;20411;-48
2024/04/07 00:29:12;;;;;;;0.00;0.00;;;19.50;51.70;;;;;;5047685;28;20707;-50
2024/04/07 00:31:42;;;;;;;0.00;0.00;;;19.60;51.80;;;;;;5047824;28;20206;-48
2024/04/07 00:34:14;;;;;;;0.00;0.00;;;19.60;51.90;;;;;;5048454;28;20211;-47
2024/04/07 00:36:43;;;;;;;0.00;0.00;;;19.70;51.80;;;;;;5047005;28;20195;-48
2024/04/07 00:39:14;;;;;;;0.03;0.03;;;19.70;51.80;;;;;;5046665;28;20305;-50
2024/04/07 00:41:43;;;;;;;0.10;0.10;;;19.80;51.80;;;;;;5047103;28;20591;-47
2024/04/07 00:44:14;;;;;;;0.05;0.05;;;19.80;51.80;;;;;;5047410;28;20235;-48
2024/04/07 00:46:44;;;;;;;0.00;0.00;;;19.80;51.70;;;;;;5047156;28;20191;-49
2024/04/07 00:49:17;;;;;;;0.00;0.00;;;19.90;51.70;;;;;;5047129;28;20219;-49
2024/04/07 00:51:46;;;;;;;0.00;0.00;;;19.90;51.70;;;;;;5047757;28;20740;-47
2024/04/07 00:54:17;;;;;;;0.00;0.00;;;19.90;51.70;;;;;;5047145;28;20214;-50
2024/04/07 00:56:46;;;;;;;0.00;0.00;;;20.00;51.70;;;;;;5047728;28;20203;-52
2024/04/07 00:59:17;;;;;;;0.00;0.00;;;20.00;51.70;;;;;;5047489;28;20227;-49
2024/04/07 01:01:47;;;;;;;0.00;0.00;;;20.00;51.70;;;;;;5048074;28;20199;-51
2024/04/07 01:04:19;;;;;;;0.00;0.00;;;20.10;51.70;;;;;;5047333;28;20234;-47
2024/04/07 01:06:49;;;;;;;0.10;0.10;;;20.10;52.30;;;;;;5047317;28;20207;-52
2024/04/07 01:09:22;;;;;;;0.00;0.00;;;20.10;51.70;;;;;;5045868;28;20553;-49
2024/04/07 01:11:51;;;;;;;0.00;0.00;;;20.10;51.70;;;;;;5046478;28;20203;-52
2024/04/07 01:14:22;;;;;;;0.00;0.00;;;20.10;51.70;;;;;;5048299;28;20200;-47
2024/04/07 01:16:51;;;;;;;0.00;0.00;;;20.20;51.70;;;;;;5048278;28;20245;-50
2024/04/07 01:19:23;;;;;;;0.00;0.00;;;20.20;51.80;;;;;;5047044;28;20691;-61
2024/04/07 01:21:53;;;;;;;0.03;0.03;;;20.30;52.00;;;;;;5046839;28;20203;-50
2024/04/07 01:24:26;;;;;;;0.05;0.05;;;20.30;51.90;;;;;;5046454;28;20230;-49
2024/04/07 01:26:55;;;;;;;0.00;0.00;;;20.40;52.00;;;;;;5047336;28;20199;-51
2024/04/07 01:29:25;;;;;;;0.00;0.00;;;20.40;51.90;;;;;;5048014;28;20313;-48
2024/04/07 01:31:55;;;;;;;0.10;0.10;;;20.40;51.80;;;;;;5047968;28;20202;-48
2024/04/07 01:34:25;;;;;;;0.00;0.00;;;20.50;51.80;;;;;;5047465;28;20237;-52
2024/04/07 01:36:54;;;;;;;0.00;0.00;;;20.50;51.80;;;;;;5046504;28;20207;-50
2024/04/07 01:39:27;;;;;;;0.10;0.10;;;20.50;51.70;;;;;;5047158;28;20227;-47
2024/04/07 01:41:56;;;;;;;0.00;0.00;;;20.50;51.60;;;;;;5049037;28;20207;-48
2024/04/07 01:44:27;;;;;;;0.08;0.08;;;20.60;51.70;;;;;;5050084;28;20844;-51
2024/04/07 01:46:56;;;;;;;0.00;0.00;;;20.60;51.60;;;;;;5049675;28;20894;-54
2024/04/07 01:49:27;;;;;;;0.00;0.00;;;20.60;51.50;;;;;;5050658;28;20541;-50
2024/04/07 01:51:56;;;;;;;0.00;0.00;;;20.60;51.50;;;;;;5050169;28;20195;-54
2024/04/07 01:54:32;;;;;;;0.10;0.10;;;20.70;51.50;;;;;;5050694;28;20200;-50
2024/04/07 01:57:01;;;;;;;0.00;0.00;;;20.70;51.50;;;;;;5049349;28;20195;-50
2024/04/07 01:59:32;;;;;;;0.00;0.00;;;20.70;51.50;;;;;;5050607;28;20294;-52
2024/04/07 02:02:02;;;;;;;0.00;0.00;;;20.70;51.50;;;;;;5049973;28;20203;-52
2024/04/07 02:04:32;;;;;;;0.00;0.00;;;20.80;51.50;;;;;;5061377;22;20235;-47
2024/04/07 02:07:02;;;;;;;0.00;0.00;;;20.80;51.50;;;;;;5049669;28;20249;-47
2024/04/07 02:09:35;;;;;;;0.00;0.00;;;20.80;51.50;;;;;;5049738;28;20210;-48
2024/04/07 02:12:04;;;;;;;0.00;0.00;;;20.80;51.40;;;;;;5050962;28;20667;-47
2024/04/07 02:14:35;;;;;;;0.08;0.08;;;20.90;51.50;;;;;;5049745;28;20204;-47
2024/04/07 02:17:05;;;;;;;0.00;0.00;;;20.90;51.40;;;;;;5050070;28;20196;-47
2024/04/07 02:19:35;;;;;;;0.10;0.10;;;20.90;51.40;;;;;;5050210;28;20269;-47
2024/04/07 02:22:05;;;;;;;0.00;0.00;;;21.00;51.40;;;;;;5055553;28;20207;-46
2024/04/07 02:24:38;;;;;;;0.00;0.00;;;21.00;51.40;;;;;;5059143;28;20227;-47
2024/04/07 02:27:09;;;;;;;0.10;0.10;;;21.00;52.00;;;;;;5049932;28;20196;-49
2024/04/07 02:29:40;;;;;;;0.10;0.10;;;21.00;51.30;;;;;;5048858;28;20396;-49
2024/04/07 02:32:09;;;;;;;0.00;0.00;;;21.10;51.30;;;;;;5051798;28;20204;-47
2024/04/07 02:34:39;;;;;;;0.00;0.00;;;21.10;51.40;;;;;;5069786;28;20686;-48
2024/04/07 02:37:09;;;;;;;0.00;0.00;;;21.10;51.40;;;;;;5068537;28;20542;-46
2024/04/07 02:39:42;;;;;;;0.00;0.00;;;21.10;51.20;;;;;;5069495;28;20198;-48
2024/04/07 02:42:11;;;;;;;0.00;0.00;;;21.20;51.30;;;;;;5055460;28;20204;-49
2024/04/07 02:50:28;;;;;;;0.00;0.00;;;21.20;51.30;;;;;;5045098;28;20226;-50
2024/04/07 02:52:58;;;;;;;0.00;0.00;;;21.20;51.30;;;;;;5049114;28;20809;-49
2024/04/07 02:55:31;;;;;;;0.00;0.00;;;21.30;51.30;;;;;;5052975;28;20530;-47
2024/04/07 02:58:00;;;;;;;0.00;0.00;;;21.30;51.30;;;;;;5049894;28;20273;-50
2024/04/07 03:00:30;;;;;;;0.00;0.00;;;21.30;51.30;;;;;;5049313;28;20203;-48
2024/04/07 03:02:59;;;;;;;0.00;0.00;;;21.30;51.30;;;;;;5058999;28;20215;-48
2024/04/07 03:05:30;;;;;;;0.00;0.00;;;21.40;51.40;;;;;;5068628;28;20705;-50
2024/04/07 03:07:59;;;;;;;0.10;0.10;;;21.40;51.90;;;;;;5059780;28;20222;-52
2024/04/07 03:10:32;;;;;;;0.00;0.00;;;21.40;51.30;;;;;;5032450;28;20204;-51
2024/04/07 03:13:01;;;;;;;0.00;0.00;;;21.40;51.30;;;;;;5029328;28;20200;-48
2024/04/07 03:15:34;;;;;;;0.10;0.10;;;21.50;51.20;;;;;;5029011;28;20282;-50
2024/04/07 03:18:03;;;;;;;0.00;0.00;;;21.50;51.10;;;;;;5030549;28;20699;-50
2024/04/07 03:20:34;;;;;;;0.00;0.00;;;21.50;51.10;;;;;;5048620;28;20196;-50
2024/04/07 03:23:03;;;;;;;0.08;0.08;;;21.50;51.10;;;;;;5049080;28;20659;-50
2024/04/07 03:25:36;;;;;;;0.00;0.00;;;21.60;51.20;;;;;;5049169;28;20310;-48
2024/04/07 03:28:06;;;;;;;0.00;0.00;;;21.60;51.10;;;;;;5048286;28;20239;-49
2024/04/07 03:30:37;;;;;;;0.10;0.10;;;21.60;51.10;;;;;;5049035;28;20687;-50
2024/04/07 03:33:06;;;;;;;0.10;0.10;;;21.60;51.10;;;;;;5058262;28;20248;-50
2024/04/07 03:35:37;;;;;;;0.10;0.10;;;21.70;51.10;;;;;;5061191;28;20278;-49
2024/04/07 03:38:08;;;;;;;0.00;0.00;;;21.70;51.10;;;;;;5047937;28;20902;-48
2024/04/07 03:40:43;;;;;;;0.00;0.00;;;21.70;51.10;;;;;;5048261;28;20195;-49
2024/04/07 03:43:16;;;;;;;0.00;0.00;;;21.70;51.10;;;;;;5048743;28;20257;-47
2024/04/07 03:45:46;;;;;;;0.00;0.00;;;21.70;51.00;;;;;;5047943;28;21041;-46
2024/04/07 03:48:17;;;;;;;0.00;0.00;;;21.70;51.00;;;;;;5047832;28;20223;-47
2024/04/07 03:50:48;;;;;;;0.00;0.00;;;21.80;51.00;;;;;;5047826;28;20249;-48
2024/04/07 03:53:18;;;;;;;0.00;0.00;;;21.80;50.90;;;;;;5048606;28;20249;-47
2024/04/07 03:55:49;;;;;;;0.00;0.00;;;21.80;50.90;;;;;;5048507;28;20196;-53
2024/04/07 03:58:20;;;;;;;0.00;0.00;;;21.80;50.80;;;;;;5048089;28;20212;-49
2024/04/07 04:00:49;;;;;;;0.00;0.00;;;21.80;51.40;;;;;;5048398;28;20469;-51
2024/04/07 04:03:20;;;;;;;0.00;0.00;;;21.90;50.90;;;;;;5060078;28;20214;-51
2024/04/07 04:05:55;;;;;;;0.10;0.10;;;21.80;50.80;;;;;;5067189;28;20718;-49
2024/04/07 04:08:26;;;;;;;0.10;0.10;;;21.90;50.80;;;;;;5067692;28;20225;-47
2024/04/07 04:10:57;;;;;;;0.00;0.00;;;21.90;50.80;;;;;;5051168;28;20257;-47
2024/04/07 04:13:28;;;;;;;0.10;0.10;;;21.90;50.80;;;;;;5048969;28;20206;-50
2024/04/07 04:15:57;;;;;;;0.10;0.10;;;21.90;50.90;;;;;;5047780;28;20198;-49
2024/04/07 04:18:28;;;;;;;0.08;0.08;;;21.90;50.80;;;;;;5048290;28;20227;-49
2024/04/07 04:20:57;;;;;;;0.00;0.00;;;21.90;50.80;;;;;;5047073;28;20200;-51
2024/04/07 04:23:27;;;;;;;0.00;0.00;;;21.90;50.80;;;;;;5047799;28;20204;-49
2024/04/07 04:26:00;;;;;;;0.00;0.00;;;21.90;50.80;;;;;;5047707;28;20239;-48
2024/04/07 04:28:30;;;;;;;0.00;0.00;;;22.00;50.80;;;;;;5047709;28;20218;-49
2024/04/07 04:31:02;;;;;;;0.00;0.00;;;22.00;50.80;;;;;;5047968;28;20237;-50
2024/04/07 04:33:34;;;;;;;0.00;0.00;;;22.00;50.70;;;;;;5061652;28;20318;-49
2024/04/07 04:36:03;;;;;;;0.00;0.00;;;22.00;50.70;;;;;;5054136;28;20231;-48
2024/04/07 04:38:34;;;;;;;0.00;0.00;;;22.00;50.60;;;;;;5047118;28;20601;-48
2024/04/07 04:41:05;;;;;;;0.00;0.00;;;22.00;50.60;;;;;;5046183;28;20566;-48
2024/04/07 04:43:36;;;;;;;0.00;0.00;;;22.10;50.50;;;;;;5046986;28;20195;-48
2024/04/07 04:46:07;;;;;;;0.00;0.00;;;22.10;50.40;;;;;;5047294;28;20231;-49
2024/04/07 04:48:38;;;;;;;0.10;0.10;;;22.10;50.30;;;;;;5046708;28;20336;-48
2024/04/07 04:51:07;;;;;;;0.10;0.10;;;22.10;50.20;;;;;;5047717;28;20223;-50
2024/04/07 04:53:38;;;;;;;0.00;0.00;;;22.10;50.20;;;;;;5046636;28;20199;-48
2024/04/07 04:56:09;;;;;;;0.05;0.05;;;22.10;50.20;;;;;;5047439;28;20199;-50
2024/04/07 04:58:40;;;;;;;0.00;0.00;;;22.10;50.20;;;;;;5047605;28;20273;-50
2024/04/07 05:01:16;;;;;;;0.10;0.10;;;22.10;50.20;;;;;;5046799;28;20195;-48
2024/04/07 05:03:48;;;;;;;0.00;0.00;;;22.10;50.20;;;;;;5059548;28;20242;-49
2024/04/07 05:06:18;;;;;;;0.00;0.00;;;22.10;50.20;;;;;;5046720;28;20687;-51
2024/04/07 05:08:50;;;;;;;0.00;0.00;;;22.20;50.20;;;;;;5046576;28;20226;-48
2024/04/07 05:11:21;;;;;;;0.10;0.10;;;22.20;50.20;;;;;;5027832;28;20196;-51
2024/04/07 05:13:52;;;;;;;0.10;0.10;;;22.20;50.10;;;;;;5027620;28;20228;-59
2024/04/07 05:16:21;;;;;;;0.00;0.00;;;22.20;50.60;;;;;;5028130;28;20569;-59
2024/04/07 05:18:53;;;;;;;0.00;0.00;;;22.20;49.90;;;;;;5031610;28;20225;-60
2024/04/07 05:21:22;;;;;;;0.00;0.00;;;22.20;49.90;;;;;;5039017;28;20199;-55
2024/04/07 05:23:54;;;;;;;0.00;0.00;;;22.20;49.80;;;;;;5051220;28;20195;-56
2024/04/07 05:26:26;;;;;;;0.00;0.00;;;22.20;49.80;;;;;;5050384;28;20292;-53
2024/04/07 05:28:56;;;;;;;0.10;0.10;;;22.20;49.70;;;;;;5050413;28;20219;-52
2024/04/07 05:31:25;;;;;;;0.05;0.05;;;22.20;49.60;;;;;;5050575;28;20298;-52
2024/04/07 05:33:57;;;;;;;0.10;0.10;;;22.10;49.50;;;;;;5067237;28;20210;-53
2024/04/07 05:36:26;;;;;;;0.10;0.10;;;22.10;49.40;;;;;;5031058;28;20295;-53
2024/04/07 05:38:56;;;;;;;0.00;0.00;;;22.10;49.40;;;;;;5030454;28;20224;-50
2024/04/07 05:41:27;;;;;;;0.03;0.03;;;22.10;49.50;;;;;;5031073;28;20407;-58
2024/04/07 05:43:58;;;;;;;0.00;0.00;;;22.10;49.40;;;;;;5030477;28;20246;-49
2024/04/07 05:46:27;;;;;;;0.00;0.00;;;22.10;49.30;;;;;;5030925;28;20227;-53
2024/04/07 05:48:59;;;;;;;0.00;0.00;;;22.10;49.30;;;;;;5060380;28;20238;-54
2024/04/07 05:51:28;;;;;;;0.00;0.00;;;22.00;49.20;;;;;;5030151;28;20204;-52
2024/04/07 05:53:59;;;;;;;0.05;0.05;;;22.00;49.20;;;;;;5039884;28;20210;-49
2024/04/07 05:56:30;;;;;;;0.00;0.00;;;22.00;49.20;;;;;;5049079;28;20613;-56
2024/04/07 05:59:00;;;;;;;0.00;0.00;;;22.00;49.20;;;;;;5050639;28;20223;-52
2024/04/07 06:01:30;;;;;;;0.00;0.00;;;22.00;49.20;;;;;;5049978;28;20215;-58
2024/04/07 06:04:01;;;;;;;0.00;0.00;;;22.00;49.20;;;;;;5053708;28;20386;-50
2024/04/07 06:06:30;;;;;;;0.00;0.00;;;21.90;49.10;;;;;;5049298;28;20280;-56
2024/04/07 06:09:00;;;;;;;0.10;0.10;;;21.90;49.10;;;;;;5049605;28;20215;-56
2024/04/07 06:11:31;;;;;;;0.00;0.00;;;21.90;49.20;;;;;;5049111;28;20203;-51
2024/04/07 06:14:02;;;;;;;0.00;0.00;;;21.90;49.10;;;;;;5050204;28;20191;-53
2024/04/07 06:16:31;;;;;;;0.08;0.08;;;21.90;49.10;;;;;;5050357;28;20742;-52
2024/04/07 06:19:02;;;;;;;0.10;0.10;;;21.80;49.10;;;;;;5049302;28;20560;-52
2024/04/07 06:21:31;;;;;;;0.00;0.00;;;21.80;49.10;;;;;;5050024;28;20207;-49
2024/04/07 06:24:02;;;;;;;0.00;0.00;;;21.80;49.10;;;;;;5049551;28;20199;-53
2024/04/07 06:26:34;;;;;;;0.00;0.00;;;21.80;49.20;;;;;;5049096;28;20227;-49
2024/04/07 06:29:04;;;;;;;0.00;0.00;;;21.80;49.20;;;;;;5052272;28;20266;-53
2024/04/07 06:31:34;;;;;;;0.00;0.00;;;21.80;49.20;;;;;;5068796;28;20234;-56
2024/04/07 06:34:04;;;;;;;0.10;0.10;;;21.70;49.20;;;;;;5059395;28;20572;-55
2024/04/07 06:36:34;;;;;;;0.00;0.00;;;21.70;49.80;;;;;;5048837;28;20207;-56
2024/04/07 06:39:04;;;;;;;0.00;0.00;;;21.70;49.20;;;;;;5049806;28;20302;-51
2024/04/07 06:41:36;;;;;;;0.10;0.10;;;21.70;49.20;;;;;;5047984;28;20199;-52
2024/04/07 06:44:07;;;;;;;0.10;0.10;;;21.70;49.20;;;;;;5049315;28;20206;-53
2024/04/07 06:46:36;;;;;;;0.00;0.00;;;21.70;49.20;;;;;;5048931;28;20227;-50
2024/04/07 06:49:06;;;;;;;0.10;0.10;;;21.70;49.20;;;;;;5049443;28;20223;-46
2024/04/07 06:51:35;;;;;;;0.10;0.10;;;21.70;49.30;;;;;;5049445;28;20199;-52
2024/04/07 06:54:06;;;;;;;0.00;0.00;;;21.70;49.30;;;;;;5049085;28;20322;-47
2024/04/07 06:56:37;;;;;;;0.10;0.10;;;21.60;49.30;;;;;;5048687;28;20257;-55
2024/04/07 06:59:08;;;;;;;0.00;0.00;;;21.60;49.30;;;;;;5048964;28;20571;-51
2024/04/07 07:01:37;;;;;;;0.00;0.00;;;21.60;49.30;;;;;;5049358;28;20198;-46
2024/04/07 07:04:07;;;;;;;0.00;0.00;;;21.60;49.30;;;;;;5067842;28;20219;-57
2024/04/07 07:06:36;;;;;;;0.00;0.00;;;21.60;49.30;;;;;;5059049;28;20254;-50
2024/04/07 07:09:08;;;;;;;0.00;0.00;;;21.60;49.30;;;;;;5049171;28;20220;-54
2024/04/07 07:11:39;;;;;;;0.00;0.00;;;21.60;49.30;;;;;;5048641;28;20294;-50
2024/04/07 07:14:10;;;;;;;0.00;0.00;;;21.50;49.30;;;;;;5047887;28;20191;-56
2024/04/07 07:16:39;;;;;;;0.00;0.00;;;21.50;49.20;;;;;;5048245;28;20210;-51
2024/04/07 07:19:10;;;;;;;0.00;0.00;;;21.50;49.20;;;;;;5048389;28;20235;-51
2024/04/07 07:21:39;;;;;;;0.00;0.00;;;21.50;49.30;;;;;;5047024;28;20198;-53
2024/04/07 07:24:10;;;;;;;0.00;0.00;;;21.50;49.30;;;;;;5048972;28;20207;-53
2024/04/07 07:26:42;;;;;;;0.00;0.00;;;21.50;49.30;;;;;;5047834;28;20266;-51
2024/04/07 07:29:14;;;;;;;0.03;0.03;;;21.50;49.30;;;;;;5049033;28;20705;-52
2024/04/07 07:31:43;;;;;;;0.00;0.00;;;21.50;49.30;;;;;;5048582;28;20202;-49
2024/04/07 07:34:14;;;;;;;0.00;0.00;;;21.40;49.30;;;;;;5067740;28;20206;-50
2024/04/07 07:36:43;;;;;;;0.00;0.00;;;21.50;49.30;;;;;;5051166;28;20706;-57
2024/04/07 07:39:14;;;;;;;0.03;0.03;;;21.40;49.30;;;;;;5047424;28;20219;-47
2024/04/07 07:41:45;;;;;;;0.00;0.00;;;21.40;49.20;;;;;;5048187;28;20686;-54
2024/04/07 07:44:15;;;;;;;0.10;0.10;;;21.40;49.30;;;;;;5048095;28;20610;-48
2024/04/07 07:46:44;;;;;;;0.10;0.10;;;21.40;49.30;;;;;;5047743;28;20233;-51
2024/04/07 07:49:15;;;;;;;0.00;0.00;;;21.40;49.30;;;;;;5047839;28;20224;-55
2024/04/07 07:51:44;;;;;;;0.00;0.00;;;21.30;49.30;;;;;;5047554;28;20199;-52
2024/04/07 07:54:15;;;;;;;0.00;0.00;;;21.30;49.20;;;;;;5047912;28;20207;-54
2024/04/07 07:56:46;;;;;;;0.10;0.10;;;21.30;49.30;;;;;;5049753;28;20203;-52
2024/04/07 07:59:16;;;;;;;0.05;0.05;;;21.30;49.30;;;;;;5051296;28;20215;-50
2024/04/07 08:01:46;;;;;;;0.00;0.00;;;21.20;49.30;;;;;;5051807;28;20565;-55
2024/04/07 08:04:16;;;;;;;0.10;0.10;;;21.20;49.30;;;;;;5071670;28;20206;-54
2024/04/07 08:06:45;;;;;;;0.00;0.00;;;21.20;49.30;;;;;;5070737;28;20226;-49
2024/04/07 08:09:21;;;;;;;0.00;0.00;;;21.20;49.30;;;;;;5070254;28;20252;-51
2024/04/07 08:11:53;;;;;;;0.10;0.10;;;21.10;49.30;;;;;;5062578;28;20195;-52
2024/04/07 08:14:24;;;;;;;0.08;0.08;;;21.10;49.40;;;;;;5051622;28;20199;-57
2024/04/07 08:16:55;;;;;;;0.10;0.10;;;21.10;49.40;;;;;;5051288;28;20199;-50
2024/04/07 08:19:25;;;;;;;0.00;0.00;;;21.10;49.50;;;;;;5051474;28;20272;-55
2024/04/07 08:21:56;;;;;;;0.10;0.10;;;21.10;49.50;;;;;;5051224;28;20207;-52
2024/04/07 08:24:26;;;;;;;0.00;0.00;;;21.10;49.50;;;;;;5050306;28;20199;-56
2024/04/07 08:27:00;;;;;;;0.10;0.10;;;21.10;49.50;;;;;;5051207;28;20219;-51
2024/04/07 08:29:30;;;;;;;0.00;0.00;;;21.10;49.50;;;;;;5051552;28;20192;-49
2024/04/07 08:32:01;;;;;;;0.08;0.08;;;21.00;49.50;;;;;;5052499;28;20644;-51
2024/04/07 08:34:30;;;;;;;0.00;0.00;;;21.00;49.50;;;;;;5060675;28;20195;-49
2024/04/07 08:37:01;;;;;;;0.10;0.10;;;21.00;49.50;;;;;;5050271;28;20196;-51
2024/04/07 08:39:30;;;;;;;0.00;0.00;;;21.00;49.50;;;;;;5050388;28;20199;-55
2024/04/07 08:42:04;;;;;;;0.00;0.00;;;20.90;49.40;;;;;;5050483;28;20660;-52
2024/04/07 08:44:35;;;;;;;0.00;0.00;;;20.90;49.40;;;;;;5051059;28;20663;-52
2024/04/07 08:47:08;;;;;;;0.10;0.10;;;20.90;49.40;;;;;;5051401;28;20230;-52
2024/04/07 08:49:38;;;;;;;0.10;0.10;;;20.80;49.40;;;;;;5051373;28;20196;-50
2024/04/07 08:52:10;;;;;;;0.00;0.00;;;20.90;49.40;;;;;;5053749;28;20205;-48
2024/04/07 08:54:40;;;;;;;0.00;0.00;;;20.90;49.40;;;;;;5054066;28;20196;-55
2024/04/07 08:57:15;;;;;;;0.00;0.00;;;20.80;49.40;;;;;;5054283;28;20611;-52
2024/04/07 08:59:48;;;;;;;0.00;0.00;;;20.70;49.40;;;;;;5054703;28;20678;-52
2024/04/07 09:02:20;;;;;;;0.00;0.00;;;20.80;49.50;;;;;;5058422;28;20227;-51
2024/04/07 09:04:49;;;;;;;0.05;0.05;;;20.70;49.50;;;;;;5055543;28;20199;-48
2024/04/07 09:07:19;;;;;;;0.00;0.00;;;20.70;49.50;;;;;;5054779;28;20222;-51
2024/04/07 09:09:48;;;;;;;0.10;0.10;;;20.70;49.50;;;;;;5054518;28;20203;-55
2024/04/07 09:12:21;;;;;;;0.00;0.00;;;20.60;49.50;;;;;;5053974;28;20187;-51
2024/04/07 09:14:51;;;;;;;0.00;0.00;;;20.60;49.40;;;;;;5054037;28;20196;-51
2024/04/07 09:17:22;;;;;;;0.10;0.10;;;20.60;49.40;;;;;;5053866;28;20197;-57
2024/04/07 09:19:52;;;;;;;0.00;0.00;;;20.60;49.40;;;;;;5054234;28;20267;-53
2024/04/07 09:22:22;;;;;;;0.00;0.00;;;20.60;49.50;;;;;;5063695;28;20566;-51
2024/04/07 09:25:02;;;;;;;0.00;0.00;;;20.50;49.40;;;;;;5073875;28;20191;-48
2024/04/07 09:27:33;;;;;;;0.00;0.00;;;20.50;49.40;;;;;;5073719;28;20661;-54
2024/04/07 09:30:06;;;;;;;0.10;0.10;;;20.50;49.40;;;;;;5072996;28;20285;-52
2024/04/07 09:32:36;;;;;;;0.00;0.00;;;20.50;49.40;;;;;;5074122;28;20199;-48
2024/04/07 09:35:07;;;;;;;0.00;0.00;;;20.50;49.40;;;;;;5073083;28;20709;-47
2024/04/07 09:37:41;;;;;;;0.00;0.00;;;20.40;49.40;;;;;;5073395;28;20219;-47
2024/04/07 09:40:12;;;;;;;0.00;0.00;;;20.40;49.40;;;;;;5073154;28;20195;-47
2024/04/07 09:42:44;;;;;;;0.00;0.00;;;20.40;49.40;;;;;;5073623;28;20195;-51
2024/04/07 09:45:15;;;;;;;0.00;0.00;;;20.40;49.50;;;;;;5073227;28;20195;-50
2024/04/07 09:47:48;;;;;;;0.00;0.00;;;20.40;49.50;;;;;;5073992;28;20222;-47
2024/04/07 09:50:29;;;;;;;0.00;0.00;;;20.30;49.40;;;;;;5074378;28;20203;-48
2024/04/07 09:53:01;;;;;;;0.00;0.00;;;20.30;49.50;;;;;;5074179;28;20199;-48
2024/04/07 09:55:35;;;;;;;0.00;0.00;;;20.30;49.50;;;;;;5074358;28;20195;-47
2024/04/07 09:58:09;;;;;;;0.00;0.00;;;20.20;49.40;;;;;;5055442;28;20223;-60
2024/04/07 10:00:38;;;;;;;0.00;0.00;;;20.20;49.40;;;;;;5035123;28;20721;-59
2024/04/07 10:03:10;;;;;;;0.00;0.00;;;20.20;49.40;;;;;;5047352;28;20204;-60
2024/04/07 10:05:39;;;;;;;0.10;0.10;;;20.20;49.40;;;;;;5049820;28;20214;-60
2024/04/07 10:08:11;;;;;;;0.10;0.10;;;20.10;49.40;;;;;;5049679;28;20216;-48
2024/04/07 10:10:40;;;;;;;0.10;0.10;;;20.10;49.40;;;;;;5049660;28;20187;-53
2024/04/07 10:13:17;;;;;;;0.00;0.00;;;20.10;49.30;;;;;;5049897;28;20587;-55
2024/04/07 10:15:51;;;;;;;0.00;0.00;;;20.10;49.30;;;;;;5050087;28;20566;-55
2024/04/07 10:18:22;;;;;;;0.00;0.00;;;20.10;49.30;;;;;;5049414;28;20826;-49
2024/04/07 10:20:53;;;;;;;0.00;0.00;;;20.10;49.30;;;;;;5049863;28;20191;-51
2024/04/07 10:23:27;;;;;;;0.00;0.00;;;20.10;49.30;;;;;;5065739;28;20210;-54
2024/04/07 10:26:03;;;;;;;0.00;0.00;;;20.00;49.30;;;;;;5049286;28;20196;-49
2024/04/07 10:28:53;;;;;;;0.00;0.00;;;20.00;49.30;;;;;;5049665;28;20227;-54
2024/04/07 10:31:25;;;;;;;0.10;0.10;;;19.90;49.40;;;;;;5049601;28;20204;-55
2024/04/07 10:33:57;;;;;;;0.10;0.10;;;19.90;49.40;;;;;;5066123;28;20209;-56
2024/04/07 10:36:27;;;;;;;0.00;0.00;;;19.90;49.40;;;;;;5069386;28;20222;-47
2024/04/07 10:38:59;;;;;;;0.10;0.10;;;19.90;49.40;;;;;;5059332;28;20223;-49
2024/04/07 10:41:29;;;;;;;0.00;0.00;;;19.80;49.40;;;;;;5049987;28;20207;-47
2024/04/07 10:44:03;;;;;;;0.10;0.10;;;19.80;49.40;;;;;;5049258;28;20257;-53
2024/04/07 10:46:33;;;;;;;0.10;0.10;;;19.80;49.50;;;;;;5049352;28;20227;-52
2024/04/07 10:49:05;;;;;;;0.05;0.05;;;19.80;49.40;;;;;;5048906;28;20264;-46
2024/04/07 10:51:34;;;;;;;0.00;0.00;;;19.80;49.50;;;;;;5049279;28;20206;-48
2024/04/07 10:54:06;;;;;;;0.00;0.00;;;19.80;49.40;;;;;;5049805;28;20199;-55
2024/04/07 10:56:35;;;;;;;0.00;0.00;;;19.80;49.40;;;;;;5049857;28;20214;-55
2024/04/07 10:59:08;;;;;;;0.00;0.00;;;19.70;49.40;;;;;;5048331;28;20302;-56
2024/04/07 11:01:37;;;;;;;0.03;0.03;;;19.70;49.40;;;;;;5048641;28;20211;-53
2024/04/07 11:04:07;;;;;;;0.00;0.00;;;19.70;49.40;;;;;;5068012;28;20217;-47
2024/04/07 11:06:37;;;;;;;0.00;0.00;;;19.70;49.40;;;;;;5062516;28;20417;-53
2024/04/07 11:09:08;;;;;;;0.10;0.10;;;19.60;49.30;;;;;;5049167;28;20222;-51
2024/04/07 11:11:43;;;;;;;0.00;0.00;;;19.60;49.30;;;;;;5049376;28;20203;-50
2024/04/07 11:14:16;;;;;;;0.00;0.00;;;19.60;49.30;;;;;;5048518;28;20587;-54
2024/04/07 11:16:45;;;;;;;0.00;0.00;;;19.60;49.40;;;;;;5048726;28;20200;-53
2024/04/07 11:19:20;;;;;;;0.00;0.00;;;19.60;49.40;;;;;;5048694;28;20223;-48
2024/04/07 11:21:50;;;;;;;0.00;0.00;;;19.50;49.40;;;;;;5049059;28;20198;-56
2024/04/07 11:24:21;;;;;;;0.03;0.03;;;19.50;49.40;;;;;;5048908;28;20195;-54
2024/04/07 11:26:51;;;;;;;0.10;0.10;;;19.50;49.40;;;;;;5048850;28;20223;-55
2024/04/07 11:29:25;;;;;;;0.00;0.00;;;19.50;49.50;;;;;;5048161;28;20619;-57
2024/04/07 11:31:55;;;;;;;0.08;0.08;;;19.40;49.40;;;;;;5048951;28;20303;-54
2024/04/07 11:34:28;;;;;;;0.00;0.00;;;19.40;49.40;;;;;;5067858;28;20195;-51
2024/04/07 11:36:57;;;;;;;0.10;0.10;;;19.40;49.40;;;;;;5068127;28;20210;-53
2024/04/07 11:39:28;;;;;;;0.00;0.00;;;19.40;49.40;;;;;;5067875;28;20292;-52
2024/04/07 11:41:57;;;;;;;0.00;0.00;;;19.40;49.40;;;;;;5056322;28;20737;-57
2024/04/07 11:44:30;;;;;;;0.10;0.10;;;19.40;49.50;;;;;;5051608;28;20282;-52
2024/04/07 11:46:59;;;;;;;0.00;0.00;;;19.40;49.40;;;;;;5051387;28;20687;-50
2024/04/07 11:49:29;;;;;;;0.08;0.08;;;19.30;49.40;;;;;;5051520;28;20254;-50
2024/04/07 11:52:00;;;;;;;0.10;0.10;;;19.30;49.40;;;;;;5051349;28;20191;-52
2024/04/07 11:54:29;;;;;;;0.10;0.10;;;19.30;49.30;;;;;;5051827;28;20249;-55
2024/04/07 11:57:00;;;;;;;0.10;0.10;;;19.30;49.30;;;;;;5051545;28;20204;-54
2024/04/07 11:59:31;;;;;;;0.00;0.00;;;19.30;49.40;;;;;;5051775;28;20218;-54
2024/04/07 12:02:01;;;;;;;0.10;0.10;;;19.30;49.40;;;;;;5052326;28;20221;-55
2024/04/07 12:04:30;;;;;;;0.10;0.10;;;19.20;49.30;;;;;;5049977;28;20223;-53
2024/04/07 12:07:01;;;;;;;0.00;0.00;;;19.20;49.30;;;;;;5050901;28;20222;-52
2024/04/07 12:09:30;;;;;;;0.10;0.10;;;19.20;49.40;;;;;;5049385;28;20552;-51
2024/04/07 12:12:01;;;;;;;0.00;0.00;;;19.20;49.40;;;;;;5051501;28;20222;-57
2024/04/07 12:14:32;;;;;;;0.00;0.00;;;19.10;49.40;;;;;;5049074;28;20184;-48
2024/04/07 12:17:03;;;;;;;0.00;0.00;;;19.10;49.40;;;;;;5051168;28;20191;-47
2024/04/07 12:19:32;;;;;;;0.00;0.00;;;19.10;49.40;;;;;;5051573;28;20558;-55
2024/04/07 12:22:05;;;;;;;0.10;0.10;;;19.10;49.40;;;;;;5051166;28;20569;-54
2024/04/07 12:24:34;;;;;;;0.10;0.10;;;19.10;49.40;;;;;;5051079;28;20681;-56
2024/04/07 12:27:04;;;;;;;0.10;0.10;;;19.00;49.40;;;;;;5050134;28;20233;-54
2024/04/07 12:29:36;;;;;;;0.03;0.03;;;19.00;49.40;;;;;;5050726;28;20594;-53
2024/04/07 12:32:07;;;;;;;0.10;0.10;;;19.00;49.40;;;;;;5051965;28;20195;-52
2024/04/07 12:34:36;;;;;;;0.00;0.00;;;19.00;49.40;;;;;;5050661;28;20242;-54
2024/04/07 12:37:08;;;;;;;0.00;0.00;;;19.00;49.30;;;;;;5051056;28;20200;-56
2024/04/07 12:39:37;;;;;;;0.00;0.00;;;19.00;49.30;;;;;;5051343;28;20203;-59
2024/04/07 12:42:08;;;;;;;0.00;0.00;;;19.00;49.40;;;;;;5051293;28;20686;-58
2024/04/07 12:44:38;;;;;;;0.10;0.10;;;19.00;49.30;;;;;;5051035;28;20556;-59
2024/04/07 12:47:09;;;;;;;0.00;0.00;;;18.90;49.30;;;;;;5050860;28;20278;-55
2024/04/07 12:49:38;;;;;;;0.00;0.00;;;18.90;49.30;;;;;;5051597;28;20203;-59
2024/04/07 12:52:09;;;;;;;0.10;0.10;;;18.90;49.30;;;;;;5051198;28;20195;-56
2024/04/07 12:54:38;;;;;;;0.10;0.10;;;18.90;49.30;;;;;;5051031;28;20256;-55
2024/04/07 12:57:09;;;;;;;0.00;0.00;;;18.80;49.30;;;;;;5051136;28;20245;-54
2024/04/07 12:59:40;;;;;;;0.10;0.10;;;18.80;49.30;;;;;;5051218;28;20199;-54
2024/04/07 13:02:11;;;;;;;0.10;0.10;;;18.80;49.30;;;;;;5053117;28;20274;-54
2024/04/07 13:04:40;;;;;;;0.10;0.10;;;18.80;49.30;;;;;;5071738;28;20203;-58
2024/04/07 13:07:10;;;;;;;0.03;0.03;;;18.80;49.30;;;;;;5070660;28;20254;-55
2024/04/07 13:09:40;;;;;;;0.10;0.10;;;18.80;49.40;;;;;;5070939;28;20557;-55
2024/04/07 13:12:11;;;;;;;0.03;0.03;;;18.80;49.40;;;;;;5071005;28;20195;-53